Time;durP1;ratioP1;P1;durP2;ratioP2;P2;SDS_P1;SDS_P2;PMS_P1;PMS_P2;Temp;Humidity;BMP_temperature;BMP_pressure;BME280_temperature;BME280_humidity;BME280_pressure;Samples;Min_cycle;Max_cycle;Signal;HPM_P1;HPM_P2
2022/03/02 00:00:29;;;;;;;29.63;15.73;;;6.10;45.80;;;;;;5061855;28;20476;-85
2022/03/02 00:02:55;;;;;;;28.17;14.27;;;6.20;45.80;;;;;;5063763;28;20466;-85
2022/03/02 00:05:24;;;;;;;23.27;11.50;;;6.20;45.90;;;;;;5063723;28;20452;-84
2022/03/02 00:07:52;;;;;;;18.67;11.13;;;6.30;45.80;;;;;;5063370;28;20443;-86
2022/03/02 00:10:20;;;;;;;20.87;13.83;;;6.30;45.60;;;;;;5047886;28;20448;-85
2022/03/02 00:12:47;;;;;;;25.70;13.50;;;6.30;45.80;;;;;;5055520;28;20463;-85
2022/03/02 00:15:14;;;;;;;22.83;13.30;;;6.30;46.10;;;;;;5082558;28;20877;-85
2022/03/02 00:17:41;;;;;;;25.53;13.47;;;6.30;46.00;;;;;;5082666;28;20459;-82
2022/03/02 00:20:09;;;;;;;23.07;12.67;;;6.40;46.10;;;;;;5081863;28;20483;-84
2022/03/02 00:22:36;;;;;;;29.50;13.50;;;6.40;45.90;;;;;;5080291;28;20467;-86
2022/03/02 00:25:04;;;;;;;25.67;13.90;;;6.10;46.40;;;;;;5053605;28;20459;-85
2022/03/02 00:27:32;;;;;;;26.77;14.17;;;5.70;47.20;;;;;;5042782;28;20455;-85
2022/03/02 00:30:00;;;;;;;21.20;12.43;;;5.80;47.40;;;;;;5079550;28;20852;-83
2022/03/02 00:32:27;;;;;;;18.33;11.37;;;6.00;47.10;;;;;;5079744;28;21262;-85
2022/03/02 00:34:54;;;;;;;21.80;11.90;;;6.00;46.20;;;;;;5063347;28;20872;-86
2022/03/02 00:37:20;;;;;;;18.77;11.53;;;5.80;46.10;;;;;;5064827;28;20461;-85
2022/03/02 00:39:48;;;;;;;21.20;11.70;;;5.80;45.90;;;;;;5053503;28;21015;-83
2022/03/02 00:42:15;;;;;;;14.83;9.83;;;5.70;45.40;;;;;;5081008;28;20451;-84
2022/03/02 00:44:43;;;;;;;17.47;10.40;;;5.60;45.60;;;;;;5081044;28;20463;-84
2022/03/02 00:47:11;;;;;;;20.33;10.30;;;5.60;45.50;;;;;;5068459;28;21388;-85
2022/03/02 00:49:38;;;;;;;16.97;10.83;;;5.70;45.60;;;;;;5082306;28;20482;-86
2022/03/02 00:52:10;;;;;;;16.30;9.90;;;5.70;46.20;;;;;;5043832;28;21159;-85
2022/03/02 00:54:37;;;;;;;20.60;12.30;;;5.70;46.60;;;;;;5064759;28;20538;-85
2022/03/02 00:57:04;;;;;;;16.90;11.17;;;5.80;46.60;;;;;;5083316;28;20552;-85
2022/03/02 00:59:31;;;;;;;20.70;11.73;;;5.70;47.40;;;;;;5067735;28;20462;-84
2022/03/02 01:02:00;;;;;;;20.67;10.37;;;5.90;47.10;;;;;;5067931;28;20475;-85
2022/03/02 01:04:27;;;;;;;22.37;13.37;;;6.00;47.20;;;;;;5083532;28;20456;-83
2022/03/02 01:06:54;;;;;;;26.23;12.67;;;6.10;47.00;;;;;;5085865;28;20455;-85
2022/03/02 01:09:21;;;;;;;22.20;11.80;;;6.20;46.70;;;;;;5048358;28;20467;-84
2022/03/02 01:11:48;;;;;;;22.63;12.10;;;6.20;46.40;;;;;;5085717;28;21014;-85
2022/03/02 01:14:15;;;;;;;21.73;11.87;;;6.10;46.40;;;;;;5041950;28;20452;-85
2022/03/02 01:16:42;;;;;;;20.13;11.37;;;6.10;46.90;;;;;;5048019;28;20994;-83
2022/03/02 01:19:11;;;;;;;15.13;9.70;;;6.00;46.50;;;;;;5086238;28;20503;-85
2022/03/02 01:21:39;;;;;;;16.03;9.70;;;5.90;46.00;;;;;;5056778;28;20482;-85
2022/03/02 01:24:07;;;;;;;18.30;10.37;;;5.50;46.70;;;;;;5067521;28;20463;-86
2022/03/02 01:26:36;;;;;;;18.37;11.27;;;5.70;47.30;;;;;;5067289;28;20628;-84
2022/03/02 01:29:04;;;;;;;16.80;9.60;;;5.80;46.90;;;;;;5056320;28;20580;-84
2022/03/02 01:31:31;;;;;;;40.90;10.63;;;5.90;46.70;;;;;;5048277;28;20430;-85
2022/03/02 01:33:58;;;;;;;13.67;10.20;;;6.00;46.60;;;;;;5048970;28;20478;-82
2022/03/02 01:36:26;;;;;;;15.93;9.60;;;6.00;46.10;;;;;;5065142;28;20954;-85
2022/03/02 01:38:53;;;;;;;19.20;10.37;;;5.90;45.60;;;;;;5064819;28;21218;-85
2022/03/02 01:41:22;;;;;;;16.40;9.63;;;5.80;45.80;;;;;;5083923;28;20471;-85
2022/03/02 01:43:51;;;;;;;15.10;9.60;;;5.90;46.20;;;;;;5053924;28;20459;-85
2022/03/02 01:46:19;;;;;;;12.60;8.50;;;5.90;46.00;;;;;;5084330;28;20454;-84
2022/03/02 01:48:47;;;;;;;13.73;8.10;;;6.00;45.60;;;;;;5083802;28;20455;-85
2022/03/02 01:51:14;;;;;;;13.20;8.50;;;6.00;45.20;;;;;;5068313;28;20451;-85
2022/03/02 01:53:43;;;;;;;11.97;7.53;;;6.10;45.00;;;;;;5067125;28;20463;-82
2022/03/02 01:56:10;;;;;;;19.97;9.03;;;6.00;44.70;;;;;;5066621;28;20464;-84
2022/03/02 01:58:38;;;;;;;13.40;8.70;;;6.10;44.70;;;;;;5085241;28;20474;-84
2022/03/02 02:01:05;;;;;;;19.13;9.70;;;6.10;44.80;;;;;;5082571;28;20901;-84
2022/03/02 02:03:33;;;;;;;15.10;8.83;;;6.00;44.80;;;;;;5085720;28;21114;-85
2022/03/02 02:06:00;;;;;;;14.87;8.33;;;6.00;44.70;;;;;;5048663;28;20947;-85
2022/03/02 02:08:28;;;;;;;11.53;8.20;;;6.00;44.40;;;;;;5083726;28;21206;-84
2022/03/02 02:10:57;;;;;;;14.00;7.67;;;5.90;44.10;;;;;;5066019;28;20529;-85
2022/03/02 02:13:24;;;;;;;13.97;8.53;;;5.80;43.60;;;;;;5084502;28;20447;-84
2022/03/02 02:15:51;;;;;;;22.03;8.50;;;5.60;43.50;;;;;;5084741;28;20460;-85
2022/03/02 02:18:18;;;;;;;17.03;10.50;;;5.50;44.60;;;;;;5083641;28;20468;-84
2022/03/02 02:20:46;;;;;;;19.47;8.50;;;5.30;44.70;;;;;;5066150;28;20562;-84
2022/03/02 02:23:14;;;;;;;14.13;7.60;;;5.10;45.20;;;;;;5084250;28;21020;-85
2022/03/02 02:25:41;;;;;;;12.00;7.73;;;4.60;45.90;;;;;;5080791;28;20452;-82
2022/03/02 02:28:10;;;;;;;15.23;9.60;;;4.20;47.10;;;;;;5044146;28;20470;-84
2022/03/02 02:30:38;;;;;;;23.40;9.70;;;4.50;47.50;;;;;;5047746;28;20558;-85
2022/03/02 02:33:05;;;;;;;14.47;8.17;;;4.80;46.90;;;;;;5083570;28;20466;-83
2022/03/02 02:35:33;;;;;;;12.80;8.30;;;5.00;46.00;;;;;;5083316;28;20456;-84
2022/03/02 02:38:01;;;;;;;16.50;7.37;;;5.10;45.90;;;;;;5066288;28;20456;-81
2022/03/02 02:40:29;;;;;;;13.70;8.00;;;4.90;45.70;;;;;;5055875;28;20475;-85
2022/03/02 02:42:56;;;;;;;15.63;8.10;;;5.00;46.00;;;;;;5062708;28;20463;-85
2022/03/02 02:45:24;;;;;;;14.67;8.10;;;5.10;45.90;;;;;;5065206;28;20468;-84
2022/03/02 02:47:54;;;;;;;15.80;8.60;;;5.20;45.80;;;;;;5081560;28;20444;-85
2022/03/02 02:50:23;;;;;;;9.70;7.73;;;5.30;45.60;;;;;;5037083;28;20482;-85
2022/03/02 02:52:52;;;;;;;13.50;7.57;;;5.30;45.50;;;;;;5082747;28;21040;-85
2022/03/02 02:55:22;;;;;;;14.47;7.73;;;5.40;45.20;;;;;;5053089;28;20475;-85
2022/03/02 02:57:50;;;;;;;13.70;9.40;;;5.40;44.90;;;;;;5083125;28;20885;-84
2022/03/02 03:00:19;;;;;;;16.33;9.73;;;5.30;44.70;;;;;;5081248;28;20471;-84
2022/03/02 03:02:48;;;;;;;14.17;7.73;;;5.10;44.80;;;;;;5063823;28;21145;-85
2022/03/02 03:05:17;;;;;;;13.03;7.70;;;5.10;44.80;;;;;;5047702;28;20495;-81
2022/03/02 03:07:45;;;;;;;11.77;7.90;;;5.00;44.90;;;;;;5081651;28;20465;-85
2022/03/02 03:10:13;;;;;;;13.40;7.87;;;5.00;45.20;;;;;;5043879;28;21290;-84
2022/03/02 03:12:43;;;;;;;14.87;8.07;;;4.90;45.50;;;;;;5066521;28;21063;-82
2022/03/02 03:15:12;;;;;;;11.87;7.90;;;5.00;45.60;;;;;;5065879;28;20444;-83
2022/03/02 03:17:39;;;;;;;11.43;6.97;;;4.90;44.90;;;;;;5064321;28;20455;-85
2022/03/02 03:20:09;;;;;;;14.37;8.73;;;4.80;45.00;;;;;;5064965;28;20479;-83
2022/03/02 03:22:36;;;;;;;14.03;8.10;;;4.80;45.30;;;;;;5083037;28;20476;-84
2022/03/02 03:25:04;;;;;;;14.23;8.30;;;4.70;45.70;;;;;;5064343;28;20567;-84
2022/03/02 03:27:32;;;;;;;12.73;8.33;;;4.70;45.90;;;;;;5082965;28;20444;-84
2022/03/02 03:30:00;;;;;;;14.30;9.10;;;4.70;46.20;;;;;;5039735;28;20486;-84
2022/03/02 03:32:27;;;;;;;13.57;9.10;;;4.80;46.20;;;;;;5049645;28;20442;-85
2022/03/02 03:34:54;;;;;;;15.40;8.20;;;4.90;46.10;;;;;;5080513;28;20993;-84
2022/03/02 03:37:21;;;;;;;11.13;7.30;;;4.90;45.90;;;;;;5083610;28;20468;-85
2022/03/02 03:39:48;;;;;;;17.40;8.37;;;5.00;46.00;;;;;;5065924;28;20547;-84
2022/03/02 03:42:16;;;;;;;15.67;9.03;;;5.00;46.00;;;;;;5082924;28;20483;-85
2022/03/02 03:44:43;;;;;;;12.73;7.93;;;5.00;46.10;;;;;;5063914;28;20451;-84
2022/03/02 03:47:11;;;;;;;11.57;7.63;;;5.00;46.20;;;;;;5082844;28;20458;-85
2022/03/02 03:49:39;;;;;;;10.43;7.80;;;5.00;46.30;;;;;;5037199;28;20468;-82
2022/03/02 03:52:06;;;;;;;15.83;7.50;;;5.00;46.30;;;;;;5084032;28;20455;-85
2022/03/02 03:54:33;;;;;;;17.33;9.33;;;4.90;46.30;;;;;;5062971;28;20466;-85
2022/03/02 03:57:00;;;;;;;15.93;7.63;;;4.90;46.50;;;;;;5061900;28;20847;-82
2022/03/02 03:59:27;;;;;;;13.53;9.37;;;4.90;46.80;;;;;;5064411;28;20467;-84
2022/03/02 04:01:54;;;;;;;13.53;7.93;;;5.00;46.40;;;;;;5082110;28;20479;-84
2022/03/02 04:04:22;;;;;;;15.70;8.63;;;5.00;46.30;;;;;;5050282;28;20456;-84
2022/03/02 04:06:49;;;;;;;12.27;7.20;;;4.90;46.50;;;;;;5082025;28;20451;-85
2022/03/02 04:09:16;;;;;;;17.70;9.23;;;4.30;46.70;;;;;;5061632;28;20510;-85
2022/03/02 04:11:43;;;;;;;10.97;7.73;;;4.00;47.80;;;;;;5050122;28;20448;-85
2022/03/02 04:14:10;;;;;;;12.80;7.67;;;4.10;47.30;;;;;;5048608;28;20455;-84
2022/03/02 04:16:37;;;;;;;21.20;11.00;;;4.10;47.40;;;;;;5049551;28;20456;-85
2022/03/02 04:19:05;;;;;;;23.30;11.70;;;4.30;48.10;;;;;;5063339;28;20478;-85
2022/03/02 04:21:34;;;;;;;17.60;9.70;;;4.30;47.10;;;;;;5051362;28;20472;-85
2022/03/02 04:24:01;;;;;;;21.53;8.30;;;4.40;47.30;;;;;;5066401;28;20490;-85
2022/03/02 04:26:28;;;;;;;16.30;7.83;;;4.50;47.20;;;;;;5067955;28;20455;-85
2022/03/02 04:28:55;;;;;;;17.63;8.87;;;4.60;47.30;;;;;;5086342;28;20486;-85
2022/03/02 04:31:22;;;;;;;16.60;8.67;;;4.70;47.10;;;;;;5064767;28;20483;-85
2022/03/02 04:33:49;;;;;;;17.20;9.27;;;4.80;46.90;;;;;;5068407;28;20463;-85
2022/03/02 04:36:16;;;;;;;16.73;9.00;;;4.80;46.90;;;;;;5067845;28;20456;-85
2022/03/02 04:38:44;;;;;;;25.93;9.67;;;4.90;46.60;;;;;;5085381;28;20459;-85
2022/03/02 04:41:11;;;;;;;19.23;10.03;;;4.90;46.20;;;;;;5065544;28;20991;-85
2022/03/02 04:43:39;;;;;;;20.60;10.70;;;4.90;45.90;;;;;;5069555;28;20451;-85
2022/03/02 04:46:06;;;;;;;15.47;8.90;;;4.80;46.30;;;;;;5085753;28;20755;-84
2022/03/02 04:48:33;;;;;;;14.50;9.37;;;4.90;46.40;;;;;;5061628;28;20451;-86
2022/03/02 04:51:00;;;;;;;18.17;10.33;;;4.80;46.50;;;;;;5047128;28;20472;-85
2022/03/02 04:53:57;;;;;;;12.10;8.80;;;4.70;46.80;;;;;;5083665;28;21158;-85
2022/03/02 04:56:24;;;;;;;13.83;9.27;;;4.70;46.70;;;;;;5080609;28;20460;-85
2022/03/02 04:58:51;;;;;;;24.50;9.97;;;4.80;46.50;;;;;;5083559;28;20460;-85
2022/03/02 05:01:18;;;;;;;19.97;11.27;;;4.70;46.40;;;;;;5066624;28;20988;-85
2022/03/02 05:03:45;;;;;;;19.07;11.30;;;4.60;46.70;;;;;;5083213;28;20443;-85
2022/03/02 05:06:12;;;;;;;14.90;9.03;;;4.70;46.70;;;;;;5066884;28;20460;-85
2022/03/02 05:08:38;;;;;;;12.33;8.13;;;4.70;46.60;;;;;;5066728;28;20463;-84
2022/03/02 05:11:07;;;;;;;12.43;8.27;;;4.80;46.70;;;;;;5063574;28;20472;-85
2022/03/02 05:13:36;;;;;;;18.57;10.13;;;4.70;46.40;;;;;;5049411;28;20443;-86
2022/03/02 05:16:03;;;;;;;16.77;10.70;;;4.80;46.20;;;;;;5065456;28;20523;-84
2022/03/02 05:18:30;;;;;;;20.90;8.87;;;4.80;45.90;;;;;;5084341;28;20459;-85
2022/03/02 05:20:57;;;;;;;14.47;8.07;;;4.80;45.90;;;;;;5067593;28;20517;-86
2022/03/02 05:23:23;;;;;;;16.93;9.13;;;4.80;46.00;;;;;;5064355;28;20482;-86
2022/03/02 05:25:50;;;;;;;13.43;8.37;;;4.80;46.10;;;;;;5033177;28;20939;-85
2022/03/02 05:28:18;;;;;;;18.80;9.30;;;4.80;46.20;;;;;;5085328;28;20463;-85
2022/03/02 05:30:45;;;;;;;15.17;8.90;;;4.80;46.20;;;;;;5065591;28;20475;-87
2022/03/02 05:33:12;;;;;;;14.27;7.77;;;4.80;46.00;;;;;;5050323;28;20449;-84
2022/03/02 05:35:39;;;;;;;15.47;10.00;;;4.80;46.10;;;;;;5068646;28;20518;-85
2022/03/02 05:38:07;;;;;;;14.30;9.30;;;4.70;46.00;;;;;;5066862;28;20452;-85
2022/03/02 05:40:33;;;;;;;13.97;9.20;;;4.50;46.50;;;;;;5084471;28;20477;-84
2022/03/02 05:43:00;;;;;;;16.80;9.67;;;4.40;47.20;;;;;;5065700;28;20502;-85
2022/03/02 05:45:29;;;;;;;15.73;8.07;;;4.30;47.20;;;;;;5086304;28;20459;-85
2022/03/02 05:47:55;;;;;;;12.93;7.77;;;4.30;47.40;;;;;;5085740;28;20472;-86
2022/03/02 05:50:22;;;;;;;17.93;9.27;;;4.30;47.40;;;;;;5084113;28;20510;-85
2022/03/02 05:52:49;;;;;;;12.37;7.63;;;4.30;47.40;;;;;;5083507;28;20997;-86
2022/03/02 05:55:16;;;;;;;11.17;8.20;;;4.40;47.50;;;;;;5055617;28;20452;-85
2022/03/02 05:57:43;;;;;;;11.83;7.73;;;4.50;47.40;;;;;;5085518;28;20467;-86
2022/03/02 06:00:13;;;;;;;17.67;8.20;;;4.50;47.20;;;;;;5087699;28;20479;-86
2022/03/02 06:02:42;;;;;;;14.90;8.20;;;4.50;46.90;;;;;;5067966;28;21038;-85
2022/03/02 06:05:10;;;;;;;13.83;8.73;;;4.40;47.20;;;;;;5064397;28;20448;-86
2022/03/02 06:07:37;;;;;;;17.37;9.33;;;4.30;47.50;;;;;;5067011;28;20521;-86
2022/03/02 06:10:05;;;;;;;12.93;8.27;;;4.10;47.90;;;;;;5064046;28;20468;-85
2022/03/02 06:12:33;;;;;;;15.37;8.93;;;4.00;48.00;;;;;;5068432;28;20471;-86
2022/03/02 06:15:00;;;;;;;13.47;9.33;;;3.90;48.60;;;;;;5064111;28;20465;-86
2022/03/02 06:17:27;;;;;;;8.43;7.27;;;3.80;48.90;;;;;;5083927;28;20486;-84
2022/03/02 06:19:56;;;;;;;14.80;8.77;;;3.80;48.90;;;;;;5071188;28;20506;-87
2022/03/02 06:22:25;;;;;;;18.73;10.10;;;3.70;49.70;;;;;;5061114;28;20477;-87
2022/03/02 06:24:53;;;;;;;12.93;7.50;;;3.90;49.70;;;;;;5081864;28;20513;-86
2022/03/02 06:27:21;;;;;;;16.17;9.77;;;4.10;49.30;;;;;;5065017;28;20794;-87
2022/03/02 06:29:49;;;;;;;10.90;7.50;;;4.30;48.80;;;;;;5046745;28;20559;-87
2022/03/02 06:32:16;;;;;;;18.37;9.43;;;4.40;48.50;;;;;;5066802;28;20448;-87
2022/03/02 06:34:43;;;;;;;11.97;8.00;;;4.50;48.10;;;;;;5081671;28;20951;-84
2022/03/02 06:37:13;;;;;;;16.03;8.57;;;4.50;47.30;;;;;;5064632;28;20455;-86
2022/03/02 06:39:39;;;;;;;16.23;9.60;;;4.60;47.00;;;;;;5084330;28;20491;-87
2022/03/02 06:42:13;;;;;;;14.17;9.27;;;4.60;47.40;;;;;;5066506;28;20471;-86
2022/03/02 06:44:49;;;;;;;13.53;7.57;;;4.60;47.50;;;;;;5057216;28;20981;-88
2022/03/02 06:47:20;;;;;;;17.30;8.23;;;4.70;47.50;;;;;;5084096;28;20500;-87
2022/03/02 06:50:00;;;;;;;16.30;8.90;;;4.80;47.20;;;;;;5048610;28;20459;-87
2022/03/02 06:52:33;;;;;;;15.40;9.00;;;4.90;47.30;;;;;;5065057;28;20441;-87
2022/03/02 06:55:03;;;;;;;12.80;7.27;;;4.90;47.20;;;;;;5080912;28;20461;-87
2022/03/02 06:57:30;;;;;;;12.70;7.50;;;5.00;47.20;;;;;;5063331;28;20440;-87
2022/03/02 07:00:02;;;;;;;11.20;8.00;;;5.10;47.20;;;;;;5064663;28;20484;-87
2022/03/02 07:02:38;;;;;;;17.93;9.67;;;5.10;47.20;;;;;;5064692;28;20475;-87
2022/03/02 07:05:07;;;;;;;16.90;10.00;;;5.10;47.10;;;;;;5081511;28;20803;-86
2022/03/02 07:07:36;;;;;;;17.43;8.93;;;5.20;47.10;;;;;;5082739;28;20935;-87
2022/03/02 07:10:04;;;;;;;14.80;9.40;;;5.20;46.80;;;;;;5081052;28;20506;-84
2022/03/02 07:12:32;;;;;;;20.63;10.80;;;5.20;47.40;;;;;;5047131;28;20452;-86
2022/03/02 07:14:59;;;;;;;20.53;12.40;;;5.30;47.50;;;;;;5081627;28;20460;-87
2022/03/02 07:17:28;;;;;;;24.30;14.17;;;5.10;47.50;;;;;;5048322;28;20455;-87
2022/03/02 07:19:55;;;;;;;20.00;12.03;;;5.00;48.50;;;;;;5066814;28;20597;-87
2022/03/02 07:22:27;;;;;;;26.40;12.90;;;5.20;48.60;;;;;;5078245;28;20471;-86
2022/03/02 07:25:00;;;;;;;18.70;11.70;;;5.30;48.50;;;;;;5047148;28;20740;-87
2022/03/02 07:27:27;;;;;;;16.80;10.13;;;5.40;48.50;;;;;;5084457;28;20447;-88
2022/03/02 07:29:55;;;;;;;15.63;9.07;;;5.40;47.80;;;;;;5083108;28;20479;-86
2022/03/02 07:32:23;;;;;;;18.37;10.43;;;5.40;47.70;;;;;;5036817;28;20454;-87
2022/03/02 07:34:56;;;;;;;23.10;11.00;;;5.50;47.50;;;;;;5061997;28;20452;-87
2022/03/02 07:37:24;;;;;;;22.10;8.40;;;5.60;47.50;;;;;;5063138;28;20475;-87
2022/03/02 07:39:51;;;;;;;15.60;8.43;;;5.50;47.00;;;;;;5046571;28;20460;-87
2022/03/02 07:42:20;;;;;;;17.73;10.40;;;5.60;47.60;;;;;;5063532;28;20840;-87
2022/03/02 07:44:48;;;;;;;16.40;9.97;;;5.70;47.20;;;;;;5044039;28;20459;-86
2022/03/02 07:47:15;;;;;;;20.20;10.77;;;5.70;47.60;;;;;;5065953;28;20465;-87
2022/03/02 07:49:42;;;;;;;23.87;9.57;;;5.70;46.80;;;;;;5040703;28;20558;-85
2022/03/02 07:52:10;;;;;;;16.93;9.60;;;5.80;46.60;;;;;;5044821;28;20460;-87
2022/03/02 07:54:39;;;;;;;16.47;8.97;;;5.90;46.70;;;;;;5048317;28;20456;-86
2022/03/02 07:57:08;;;;;;;19.00;10.33;;;5.90;46.30;;;;;;5078596;28;20462;-86
2022/03/02 07:59:39;;;;;;;30.43;11.77;;;6.00;46.50;;;;;;5082508;28;20475;-87
2022/03/02 08:02:08;;;;;;;15.20;10.93;;;5.90;46.30;;;;;;5064035;28;20887;-86
2022/03/02 08:04:36;;;;;;;19.30;10.80;;;5.80;46.60;;;;;;5081968;28;20451;-86
2022/03/02 08:07:03;;;;;;;20.47;11.40;;;5.70;46.80;;;;;;5081961;28;20463;-86
2022/03/02 08:09:31;;;;;;;26.03;12.20;;;5.70;46.70;;;;;;5082052;28;20463;-87
2022/03/02 08:11:59;;;;;;;47.20;17.80;;;5.80;46.90;;;;;;5083152;28;20955;-86
2022/03/02 08:14:27;;;;;;;41.57;24.80;;;5.60;47.00;;;;;;5080157;28;20959;-87
2022/03/02 08:16:56;;;;;;;13.90;9.47;;;5.70;47.30;;;;;;5065764;28;20816;-87
2022/03/02 08:19:24;;;;;;;13.20;8.57;;;5.60;47.50;;;;;;5080958;28;20525;-86
2022/03/02 08:21:56;;;;;;;15.40;8.43;;;5.80;48.00;;;;;;5046384;28;20688;-86
2022/03/02 08:24:26;;;;;;;13.07;8.10;;;5.80;46.90;;;;;;5064127;28;20460;-86
2022/03/02 08:26:55;;;;;;;12.90;7.93;;;5.90;47.10;;;;;;5040004;28;20439;-86
2022/03/02 08:29:26;;;;;;;19.90;9.03;;;6.10;46.10;;;;;;5063273;28;20482;-86
2022/03/02 08:31:58;;;;;;;15.57;9.80;;;6.00;45.30;;;;;;5063749;28;20994;-87
2022/03/02 08:34:25;;;;;;;14.60;8.50;;;6.00;45.50;;;;;;5079511;28;20962;-86
2022/03/02 08:36:54;;;;;;;15.87;8.90;;;6.30;45.70;;;;;;5064956;28;20451;-87
2022/03/02 08:39:21;;;;;;;15.37;9.60;;;6.40;45.20;;;;;;5061943;28;20483;-87
2022/03/02 08:41:49;;;;;;;15.37;10.00;;;6.50;45.00;;;;;;5063957;28;20547;-87
2022/03/02 08:44:17;;;;;;;17.07;8.80;;;6.60;44.60;;;;;;5066070;28;20475;-87
2022/03/02 08:46:45;;;;;;;15.27;9.50;;;6.60;44.10;;;;;;5046889;28;20459;-86
2022/03/02 08:49:14;;;;;;;20.63;9.50;;;6.80;44.50;;;;;;5077633;28;20538;-87
2022/03/02 08:51:42;;;;;;;12.93;8.80;;;6.90;44.40;;;;;;5064697;28;20474;-86
2022/03/02 08:54:13;;;;;;;15.33;8.03;;;7.10;44.40;;;;;;5031820;28;20489;-87
2022/03/02 08:56:41;;;;;;;18.43;9.30;;;7.20;44.10;;;;;;5064395;28;20462;-86
2022/03/02 08:59:10;;;;;;;16.73;8.60;;;7.20;43.40;;;;;;5066373;28;20548;-87
2022/03/02 09:01:41;;;;;;;20.47;9.90;;;7.00;43.10;;;;;;5036688;28;20447;-86
2022/03/02 09:04:08;;;;;;;20.07;11.60;;;7.00;43.20;;;;;;5065207;28;20491;-86
2022/03/02 09:06:37;;;;;;;17.10;10.57;;;7.00;43.30;;;;;;5019914;28;20458;-87
2022/03/02 09:09:06;;;;;;;14.60;9.00;;;7.10;43.60;;;;;;5068762;28;20485;-86
2022/03/02 09:11:33;;;;;;;12.30;8.93;;;7.30;43.70;;;;;;5067699;28;20451;-87
2022/03/02 09:14:01;;;;;;;15.73;9.27;;;7.30;43.20;;;;;;5086553;28;20455;-86
2022/03/02 09:16:28;;;;;;;12.80;9.00;;;7.10;42.90;;;;;;5059439;28;20542;-86
2022/03/02 09:18:55;;;;;;;14.00;8.97;;;7.00;43.20;;;;;;5053592;28;20466;-86
2022/03/02 09:21:23;;;;;;;15.07;9.07;;;7.00;43.60;;;;;;5084653;28;20459;-86
2022/03/02 09:23:53;;;;;;;16.77;9.40;;;7.00;43.70;;;;;;5067212;28;20846;-87
2022/03/02 09:26:21;;;;;;;16.00;8.67;;;7.10;44.60;;;;;;5066997;28;20447;-87
2022/03/02 09:28:52;;;;;;;15.30;8.67;;;7.20;43.50;;;;;;5071479;28;20464;-86
2022/03/02 09:31:21;;;;;;;13.13;7.90;;;7.30;43.50;;;;;;5046050;28;20448;-86
2022/03/02 09:33:50;;;;;;;20.83;10.47;;;7.30;43.30;;;;;;5067003;28;20455;-86
2022/03/02 09:36:22;;;;;;;14.97;9.43;;;7.20;43.10;;;;;;5043444;28;20465;-87
2022/03/02 09:38:51;;;;;;;14.40;8.83;;;7.20;43.30;;;;;;5058260;28;20532;-86
2022/03/02 09:41:27;;;;;;;15.67;9.03;;;7.40;43.30;;;;;;5072447;28;20859;-88
2022/03/02 09:43:57;;;;;;;15.17;9.47;;;7.50;42.90;;;;;;5058011;28;20825;-86
2022/03/02 09:46:34;;;;;;;22.30;11.90;;;7.50;43.00;;;;;;5041862;28;20463;-86
2022/03/02 09:49:06;;;;;;;14.97;9.57;;;7.50;42.90;;;;;;5044901;28;20546;-88
2022/03/02 09:51:35;;;;;;;17.63;9.03;;;7.60;42.00;;;;;;5065420;28;22161;-88
2022/03/02 09:54:04;;;;;;;12.27;7.80;;;7.70;41.90;;;;;;5065873;28;20440;-86
2022/03/02 09:56:35;;;;;;;12.83;7.90;;;7.60;41.20;;;;;;5064535;28;20813;-86
2022/03/02 09:59:04;;;;;;;11.97;7.93;;;7.70;41.40;;;;;;5065036;28;21069;-86
2022/03/02 10:01:34;;;;;;;14.60;8.00;;;7.80;40.70;;;;;;5083199;28;20463;-87
2022/03/02 10:04:13;;;;;;;18.97;7.50;;;7.90;40.60;;;;;;5067009;28;20484;-88
2022/03/02 10:06:44;;;;;;;13.77;8.40;;;8.00;40.30;;;;;;5065518;28;20538;-87
2022/03/02 10:09:14;;;;;;;13.10;8.63;;;7.90;40.00;;;;;;5046272;28;20486;-86
2022/03/02 10:11:43;;;;;;;13.80;9.93;;;7.90;40.20;;;;;;5082694;28;20448;-84
2022/03/02 10:14:11;;;;;;;15.37;9.30;;;7.60;40.10;;;;;;5086205;28;20458;-87
2022/03/02 10:16:44;;;;;;;14.87;8.77;;;7.60;40.40;;;;;;5051328;28;20978;-86
2022/03/02 10:19:22;;;;;;;13.07;9.20;;;7.60;40.20;;;;;;5049888;28;20493;-86
2022/03/02 10:22:04;;;;;;;12.43;8.50;;;7.70;39.50;;;;;;5065088;28;20443;-86
2022/03/02 10:24:40;;;;;;;16.37;7.87;;;7.80;39.80;;;;;;5080059;28;20480;-87
2022/03/02 10:27:07;;;;;;;14.57;9.37;;;7.90;39.60;;;;;;5067182;28;20953;-87
2022/03/02 10:29:46;;;;;;;17.87;8.57;;;7.90;39.60;;;;;;5083128;28;21213;-88
2022/03/02 10:32:16;;;;;;;12.47;8.83;;;8.00;40.00;;;;;;5053739;28;20647;-86
2022/03/02 10:34:49;;;;;;;13.70;8.20;;;8.00;38.50;;;;;;5056314;28;20450;-87
2022/03/02 10:37:35;;;;;;;10.60;8.40;;;8.10;38.90;;;;;;5049451;28;21091;-87
2022/03/02 10:40:10;;;;;;;16.60;8.10;;;8.20;38.30;;;;;;5048985;28;20482;-87
2022/03/02 10:42:41;;;;;;;14.83;8.93;;;8.10;38.10;;;;;;5084414;28;20452;-88
2022/03/02 10:45:13;;;;;;;11.43;8.23;;;8.20;38.70;;;;;;5084958;28;21086;-87
2022/03/02 10:47:53;;;;;;;11.93;8.10;;;8.40;38.60;;;;;;5040521;28;20460;-87
2022/03/02 10:50:21;;;;;;;15.03;8.77;;;8.30;39.10;;;;;;5065156;28;20479;-85
2022/03/02 10:52:50;;;;;;;19.70;8.80;;;8.40;38.30;;;;;;5065435;28;20917;-87
2022/03/02 10:55:18;;;;;;;13.90;7.77;;;8.40;38.10;;;;;;5064331;28;20458;-87
2022/03/02 10:57:49;;;;;;;12.80;7.77;;;8.20;37.90;;;;;;5063724;28;20512;-87
2022/03/02 11:00:18;;;;;;;15.50;8.63;;;8.10;38.40;;;;;;5084578;28;21100;-86
2022/03/02 11:02:48;;;;;;;18.20;9.47;;;8.00;38.70;;;;;;5047603;28;20554;-87
2022/03/02 11:05:17;;;;;;;14.90;8.70;;;8.20;39.10;;;;;;5038944;28;20483;-89
2022/03/02 11:07:45;;;;;;;16.33;9.20;;;8.30;39.00;;;;;;5064051;28;20546;-87
2022/03/02 11:10:15;;;;;;;16.23;9.40;;;8.40;38.30;;;;;;5064530;28;20467;-87
2022/03/02 11:12:45;;;;;;;15.47;7.70;;;8.50;38.50;;;;;;5082832;28;20443;-87
2022/03/02 11:15:13;;;;;;;19.70;8.63;;;8.60;38.50;;;;;;5082533;28;20647;-87
2022/03/02 11:17:52;;;;;;;16.10;8.10;;;8.50;37.90;;;;;;5063631;28;20459;-88
2022/03/02 11:20:19;;;;;;;14.47;9.03;;;8.40;38.40;;;;;;5080239;28;20486;-87
2022/03/02 11:22:52;;;;;;;13.07;8.40;;;8.30;38.40;;;;;;5065311;28;20455;-86
2022/03/02 11:25:19;;;;;;;18.53;9.37;;;8.30;38.40;;;;;;5065330;28;23149;-87
2022/03/02 11:27:47;;;;;;;18.20;9.33;;;8.50;38.00;;;;;;5083934;28;21031;-88
2022/03/02 11:30:16;;;;;;;16.73;9.43;;;8.70;38.50;;;;;;5030332;28;20470;-89
2022/03/02 11:32:46;;;;;;;13.77;8.30;;;8.70;37.20;;;;;;5047531;28;20456;-86
2022/03/02 11:35:17;;;;;;;16.60;9.10;;;8.70;38.10;;;;;;5033240;28;20458;-90
2022/03/02 11:37:44;;;;;;;13.37;8.37;;;8.80;43.50;;;;;;5022914;28;21137;-90
2022/03/02 11:40:15;;;;;;;13.90;8.80;;;9.20;48.90;;;;;;5047396;28;20487;-89
2022/03/02 11:42:43;;;;;;;15.07;8.70;;;9.60;43.70;;;;;;5068976;28;20558;-88
2022/03/02 11:45:12;;;;;;;14.37;9.13;;;9.80;41.00;;;;;;5068587;28;20467;-88
2022/03/02 11:47:47;;;;;;;13.23;8.60;;;9.90;39.90;;;;;;5058842;28;20542;-89
2022/03/02 11:50:14;;;;;;;19.90;9.67;;;9.90;37.30;;;;;;5084019;28;20471;-87
2022/03/02 11:52:45;;;;;;;17.43;11.50;;;9.70;36.30;;;;;;5034141;28;20857;-89
2022/03/02 11:55:14;;;;;;;15.60;9.00;;;9.50;36.20;;;;;;5056180;28;20481;-88
2022/03/02 11:57:44;;;;;;;12.63;8.93;;;9.30;37.20;;;;;;5060547;28;20546;-88
2022/03/02 12:00:15;;;;;;;16.33;8.87;;;9.20;37.20;;;;;;5030277;28;20503;-88
2022/03/02 12:02:45;;;;;;;15.40;9.00;;;9.10;37.70;;;;;;5054656;28;20456;-87
2022/03/02 12:05:13;;;;;;;13.40;9.80;;;9.00;37.40;;;;;;5066742;28;20475;-87
2022/03/02 12:07:42;;;;;;;17.90;10.20;;;9.10;37.90;;;;;;5044922;28;20534;-87
2022/03/02 12:10:18;;;;;;;15.70;9.20;;;9.20;38.20;;;;;;5066195;28;20481;-88
2022/03/02 12:12:45;;;;;;;16.87;9.87;;;9.30;37.40;;;;;;5048624;28;20463;-87
2022/03/02 12:15:14;;;;;;;19.20;9.90;;;9.20;36.90;;;;;;5046778;28;20628;-88
2022/03/02 12:17:41;;;;;;;14.00;8.80;;;9.20;37.30;;;;;;5033384;28;20543;-86
2022/03/02 12:20:10;;;;;;;14.17;9.37;;;9.30;37.50;;;;;;5034863;28;20474;-88
2022/03/02 12:22:40;;;;;;;11.90;8.97;;;9.50;37.20;;;;;;5067719;28;20456;-89
2022/03/02 12:25:10;;;;;;;14.20;9.63;;;9.70;36.30;;;;;;5039806;28;20468;-87
2022/03/02 12:27:37;;;;;;;18.40;9.90;;;9.70;35.70;;;;;;5049916;28;20458;-89
2022/03/02 12:30:07;;;;;;;18.13;9.93;;;9.60;36.20;;;;;;5065994;28;20558;-89
2022/03/02 12:32:38;;;;;;;15.67;9.30;;;9.90;36.20;;;;;;5048406;28;20448;-88
2022/03/02 12:35:07;;;;;;;16.67;8.80;;;10.00;34.50;;;;;;5063518;28;20999;-88
2022/03/02 12:37:35;;;;;;;15.40;9.80;;;10.10;34.50;;;;;;5082797;28;20447;-88
2022/03/02 12:40:02;;;;;;;25.33;9.43;;;9.90;34.80;;;;;;5045998;28;20467;-88
2022/03/02 12:42:29;;;;;;;19.27;10.30;;;9.80;35.50;;;;;;5067807;28;20533;-89
2022/03/02 12:44:57;;;;;;;22.67;10.60;;;9.80;35.90;;;;;;5067263;28;20489;-87
2022/03/02 12:47:27;;;;;;;16.80;10.93;;;9.90;36.30;;;;;;5040997;28;20455;-87
2022/03/02 12:49:58;;;;;;;17.13;10.33;;;9.70;36.20;;;;;;5049595;28;21036;-90